Date,TemperatureHighF,TemperatureAvgF,TemperatureLowF,DewpointHighF,DewpointAvgF,DewpointLowF,HumidityHigh,HumidityAvg,HumidityLow,PressureMaxIn,PressureMinIn,WindSpeedMaxMPH,WindSpeedAvgMPH,GustSpeedMaxMPH,PrecipitationSumIn
2014-1-1,54.3,48.2,42.6,51.0,46.6,41.0,96,94,87,30.31,30.06,4,0,6,0.13
2014-1-2,57.3,48.4,32.7,55.0,45.6,28.0,97,90,71,30.23,29.87,11,2,27,0.20
2014-1-3,41.1,31.0,24.8,27.0,21.3,18.0,89,69,42,30.41,30.24,11,3,15,0.00
2014-1-4,48.9,37.1,28.1,40.0,30.7,22.0,92,78,62,30.35,30.09,9,2,9,0.00
2014-1-5,60.6,52.0,37.2,60.0,49.5,35.0,97,91,81,30.08,29.83,7,1,18,0.02
2014-1-6,48.2,30.8,19.9,47.0,18.6,4.0,95,64,34,30.52,29.92,13,4,20,0.01
2014-1-7,29.5,20.7,13.8,13.0,5.6,2.0,78,53,35,30.63,30.49,10,2,16,0.00
2014-1-8,46.8,29.4,15.1,25.0,13.7,10.0,90,58,23,30.54,30.38,8,1,11,0.00
2014-1-9,48.9,44.0,32.5,48.0,37.3,23.0,97,79,56,30.39,30.24,5,1,10,0.19
2014-1-10,63.0,54.1,48.1,63.0,53.5,47.0,98,97,97,30.23,29.93,4,1,8,0.08
2014-1-11,73.2,63.5,46.4,67.0,57.0,37.0,98,81,48,30.05,29.76,12,2,16,1.46
2014-1-12,65.9,48.7,33.7,46.0,39.1,33.0,98,74,37,30.21,30.05,5,0,7,0.00
2014-1-13,60.4,50.9,38.2,57.0,47.8,37.0,96,90,62,30.14,29.85,11,1,12,0.55
2014-1-14,64.3,52.4,34.6,57.0,43.1,33.0,97,75,32,30.05,29.83,7,1,12,0.01
2014-1-15,53.6,40.5,31.8,42.0,32.0,22.0,97,74,44,30.14,30.00,11,2,16,0.00
2014-1-16,52.6,37.3,21.7,33.0,22.9,15.0,91,60,28,30.20,30.06,6,1,9,0.00
2014-1-17,60.7,45.4,31.3,46.0,31.4,15.0,95,63,28,30.19,30.01,12,1,15,0.00
2014-1-18,55.1,38.6,21.4,34.0,21.5,13.0,90,56,21,30.30,30.08,6,1,9,0.00
2014-1-19,60.5,46.9,32.5,47.0,37.7,31.0,95,74,36,30.17,30.04,8,1,12,0.04
2014-1-20,67.5,47.8,28.4,44.0,37.7,27.0,96,73,37,30.12,29.94,6,0,10,0.00
2014-1-21,57.2,46.2,29.4,53.0,34.5,20.0,97,68,34,30.12,29.86,11,3,25,0.00
2014-1-22,47.3,32.4,23.8,25.0,16.4,9.0,85,56,24,30.22,30.11,8,1,11,0.00
2014-1-23,49.7,37.9,26.2,27.0,23.0,17.0,94,59,34,30.51,30.20,10,2,14,0.00
2014-1-24,37.9,33.5,26.2,17.0,7.9,2.0,50,35,24,30.59,30.28,10,3,17,0.00
2014-1-25,60.7,44.1,31.4,44.0,32.5,17.0,92,65,46,30.28,29.96,7,1,17,0.00
2014-1-26,60.5,45.6,30.6,45.0,36.6,29.0,96,75,37,30.06,29.90,6,1,10,0.00
2014-1-27,67.5,53.0,44.4,60.0,49.4,29.0,96,88,54,30.06,29.89,12,2,15,0.08
2014-1-28,43.5,31.6,23.0,29.0,22.0,14.0,95,71,45,30.26,30.05,8,4,15,0.00
2014-1-29,27.4,21.4,15.4,21.0,17.3,14.0,94,84,69,30.40,30.23,6,2,13,0.00
2014-1-30,39.5,26.9,14.8,33.0,23.6,13.0,96,87,76,30.33,30.17,6,1,12,0.22
2014-1-31,58.1,38.9,24.3,41.0,31.8,23.0,96,79,36,30.23,30.09,3,0,7,0.11